Time;durP1;ratioP1;P1;durP2;ratioP2;P2;SDS_P1;SDS_P2;PMS_P1;PMS_P2;Temp;Humidity;BMP_temperature;BMP_pressure;BME280_temperature;BME280_humidity;BME280_pressure;Samples;Min_cycle;Max_cycle;Signal;HPM_P1;HPM_P2
2024/01/07 00:01:26;;;;;;;26.37;17.27;;;1.10;99.90;;;;;;5002253;28;20026;-82
2024/01/07 00:03:52;;;;;;;25.27;16.73;;;1.10;99.90;;;;;;5001593;28;20049;-81
2024/01/07 00:06:18;;;;;;;29.30;18.37;;;1.10;99.90;;;;;;5002349;28;20104;-82
2024/01/07 00:08:43;;;;;;;27.23;17.50;;;1.10;99.90;;;;;;5003326;28;20105;-81
2024/01/07 00:11:09;;;;;;;25.17;17.50;;;1.10;99.90;;;;;;5003548;28;20030;-81
2024/01/07 00:13:35;;;;;;;27.03;17.20;;;1.10;99.90;;;;;;5002532;28;20030;-81
2024/01/07 00:16:01;;;;;;;26.90;17.73;;;1.10;99.90;;;;;;5002864;28;20569;-82
2024/01/07 00:18:27;;;;;;;28.67;17.90;;;1.10;99.90;;;;;;5003399;28;20076;-81
2024/01/07 00:20:53;;;;;;;25.77;16.77;;;1.10;99.90;;;;;;5001948;28;20030;-81
2024/01/07 00:23:20;;;;;;;26.83;18.13;;;1.10;99.90;;;;;;4986467;28;20030;-82
2024/01/07 00:25:46;;;;;;;25.60;16.83;;;1.10;99.90;;;;;;5000919;28;20026;-82
2024/01/07 00:28:12;;;;;;;24.97;17.87;;;1.10;99.90;;;;;;5002273;28;20030;-81
2024/01/07 00:30:38;;;;;;;23.70;16.93;;;1.10;99.90;;;;;;5000447;28;20081;-82
2024/01/07 00:33:03;;;;;;;25.73;17.03;;;1.10;99.90;;;;;;5000802;28;20042;-82
2024/01/07 00:35:29;;;;;;;26.43;16.80;;;1.10;99.90;;;;;;5001685;28;20468;-81
2024/01/07 00:37:56;;;;;;;23.40;16.60;;;1.10;99.90;;;;;;5001567;28;20053;-81
2024/01/07 00:40:24;;;;;;;27.53;17.90;;;1.10;99.90;;;;;;5000954;28;20022;-82
2024/01/07 00:42:51;;;;;;;23.60;17.40;;;1.10;99.90;;;;;;5002087;28;20094;-81
2024/01/07 00:45:16;;;;;;;26.67;17.70;;;1.10;99.90;;;;;;5002875;28;20053;-82
2024/01/07 00:47:42;;;;;;;24.93;17.43;;;1.10;99.90;;;;;;5005698;28;20029;-81
2024/01/07 00:50:08;;;;;;;24.33;16.80;;;1.10;99.90;;;;;;5003295;28;20027;-82
2024/01/07 00:52:34;;;;;;;27.90;18.60;;;1.10;99.90;;;;;;5003342;28;20067;-82
2024/01/07 00:55:00;;;;;;;23.93;16.73;;;1.10;99.90;;;;;;5003519;28;20904;-82
2024/01/07 00:57:25;;;;;;;24.23;17.57;;;1.10;99.90;;;;;;5003368;28;20026;-82
2024/01/07 00:59:51;;;;;;;26.60;17.60;;;1.10;99.90;;;;;;5002174;28;20037;-82
2024/01/07 01:02:16;;;;;;;27.07;18.67;;;1.10;99.90;;;;;;5004626;28;20044;-82
2024/01/07 01:04:42;;;;;;;24.17;17.40;;;1.10;99.90;;;;;;5004330;28;20026;-81
2024/01/07 01:07:08;;;;;;;24.47;17.13;;;1.10;99.90;;;;;;5004463;28;20062;-82
2024/01/07 01:09:34;;;;;;;25.17;17.23;;;1.10;99.90;;;;;;5003194;28;20042;-82
2024/01/07 01:11:59;;;;;;;25.83;17.73;;;1.00;99.90;;;;;;5003084;28;20080;-81
2024/01/07 01:14:25;;;;;;;25.07;17.73;;;1.00;99.90;;;;;;5002076;28;20054;-81
2024/01/07 01:16:50;;;;;;;25.97;18.03;;;1.00;99.90;;;;;;5003677;28;20086;-82
2024/01/07 01:19:17;;;;;;;27.03;18.97;;;1.00;99.90;;;;;;5001787;28;20098;-81
2024/01/07 01:21:42;;;;;;;26.03;17.97;;;1.00;99.90;;;;;;5004662;28;20034;-82
2024/01/07 01:24:08;;;;;;;25.07;17.93;;;1.00;99.90;;;;;;5002909;28;20033;-81
2024/01/07 01:26:33;;;;;;;25.07;18.27;;;1.00;99.90;;;;;;5005558;28;21177;-82
2024/01/07 01:28:59;;;;;;;26.43;18.47;;;1.00;99.90;;;;;;5008673;28;20049;-82
2024/01/07 01:31:24;;;;;;;25.53;18.83;;;1.00;99.90;;;;;;5007265;28;20030;-82
2024/01/07 01:33:50;;;;;;;25.80;18.43;;;1.00;99.90;;;;;;5007947;28;20057;-81
2024/01/07 01:36:15;;;;;;;28.50;19.53;;;1.00;99.90;;;;;;5007274;28;20058;-81
2024/01/07 01:38:41;;;;;;;25.50;17.90;;;1.00;99.90;;;;;;5010581;28;20030;-82
2024/01/07 01:41:06;;;;;;;24.47;18.60;;;1.00;99.90;;;;;;5009646;28;20034;-82
2024/01/07 01:43:32;;;;;;;26.57;18.97;;;1.00;99.90;;;;;;5011022;28;20035;-81
2024/01/07 01:45:58;;;;;;;26.37;18.83;;;1.00;99.90;;;;;;5012879;28;20041;-81
2024/01/07 01:48:25;;;;;;;26.37;19.10;;;1.00;99.90;;;;;;5012094;28;20013;-81
2024/01/07 01:50:54;;;;;;;26.83;18.57;;;1.00;99.90;;;;;;5013352;28;20088;-81
2024/01/07 01:53:19;;;;;;;25.37;18.77;;;1.00;99.90;;;;;;5011387;28;20026;-82
2024/01/07 01:55:45;;;;;;;28.40;19.40;;;1.00;99.90;;;;;;5011511;28;20038;-81
2024/01/07 01:58:13;;;;;;;28.30;19.80;;;1.00;99.90;;;;;;5010292;28;20033;-81
2024/01/07 02:00:40;;;;;;;26.40;19.10;;;1.00;99.90;;;;;;5011555;28;20050;-81
2024/01/07 02:03:05;;;;;;;26.93;19.67;;;1.00;99.90;;;;;;5010899;28;20015;-81
2024/01/07 02:05:31;;;;;;;26.10;18.97;;;1.00;99.90;;;;;;5014765;28;20065;-80
2024/01/07 02:07:57;;;;;;;26.00;18.67;;;0.90;99.90;;;;;;5016178;28;20057;-81
2024/01/07 02:10:23;;;;;;;26.23;18.20;;;1.00;99.90;;;;;;5015775;28;20105;-81
2024/01/07 02:12:49;;;;;;;26.77;19.00;;;1.00;99.90;;;;;;5005668;28;20061;-82
2024/01/07 02:15:15;;;;;;;28.97;18.80;;;1.00;99.90;;;;;;5006323;28;20485;-82
2024/01/07 02:17:41;;;;;;;26.57;19.43;;;1.00;99.90;;;;;;5005872;28;20061;-81
2024/01/07 02:20:07;;;;;;;26.53;19.23;;;1.00;99.90;;;;;;5004928;28;20038;-81
2024/01/07 02:22:32;;;;;;;25.37;19.00;;;1.00;99.90;;;;;;5004050;28;20038;-81
2024/01/07 02:24:58;;;;;;;26.60;18.63;;;1.00;99.90;;;;;;5004299;28;20045;-81
2024/01/07 02:27:24;;;;;;;24.50;18.57;;;1.00;99.90;;;;;;5004469;28;20022;-81
2024/01/07 02:29:49;;;;;;;25.43;18.90;;;1.00;99.90;;;;;;5002793;28;20583;-81
2024/01/07 02:32:15;;;;;;;24.40;18.67;;;1.00;99.90;;;;;;5003375;28;20022;-81
2024/01/07 02:34:40;;;;;;;27.67;19.70;;;1.00;99.90;;;;;;5003443;28;20049;-81
2024/01/07 02:37:06;;;;;;;24.33;17.47;;;0.90;99.90;;;;;;5004589;28;21165;-80
2024/01/07 02:39:31;;;;;;;25.77;18.47;;;1.00;99.90;;;;;;5003280;28;20101;-81
2024/01/07 02:41:57;;;;;;;25.43;17.90;;;0.90;99.90;;;;;;5004292;28;20026;-81
2024/01/07 02:44:22;;;;;;;23.87;18.30;;;0.90;99.90;;;;;;5003565;28;20032;-81
2024/01/07 02:46:48;;;;;;;22.77;17.57;;;1.00;99.90;;;;;;5003766;28;20038;-81
2024/01/07 02:49:14;;;;;;;24.93;17.70;;;1.00;99.90;;;;;;5003422;28;20038;-81
2024/01/07 02:51:39;;;;;;;22.27;17.17;;;1.00;99.90;;;;;;5004026;28;20123;-81
2024/01/07 02:54:05;;;;;;;22.40;16.90;;;1.00;99.90;;;;;;5005559;28;20034;-81
2024/01/07 02:56:30;;;;;;;22.97;17.10;;;1.00;99.90;;;;;;5003285;28;20030;-81
2024/01/07 02:58:56;;;;;;;23.87;16.73;;;1.00;99.90;;;;;;5004705;28;20045;-81
2024/01/07 03:01:24;;;;;;;22.73;17.30;;;0.90;99.90;;;;;;5002196;28;20034;-81
2024/01/07 03:03:50;;;;;;;24.47;17.60;;;1.00;99.90;;;;;;5001812;28;20058;-81
2024/01/07 03:06:15;;;;;;;21.47;17.07;;;0.90;99.90;;;;;;5003239;28;20459;-81
2024/01/07 03:08:42;;;;;;;25.53;18.13;;;0.90;99.90;;;;;;5004048;28;20038;-81
2024/01/07 03:11:08;;;;;;;26.63;18.83;;;0.90;99.90;;;;;;5004588;28;20026;-80
2024/01/07 03:13:34;;;;;;;23.20;17.33;;;0.90;99.90;;;;;;5003408;28;20049;-81
2024/01/07 03:15:59;;;;;;;23.63;17.87;;;0.90;99.90;;;;;;5003428;28;20041;-82
2024/01/07 03:18:26;;;;;;;26.00;18.43;;;0.90;99.90;;;;;;5004553;28;20038;-81
2024/01/07 03:20:51;;;;;;;23.17;17.43;;;0.90;99.90;;;;;;5004368;28;20061;-82
2024/01/07 03:23:18;;;;;;;25.23;17.63;;;0.90;99.90;;;;;;5002389;28;20041;-82
2024/01/07 03:25:44;;;;;;;22.83;16.97;;;0.90;99.90;;;;;;5004395;28;20114;-81
2024/01/07 03:28:09;;;;;;;23.20;17.40;;;0.90;99.90;;;;;;5000967;28;20049;-81
2024/01/07 03:30:35;;;;;;;24.33;17.63;;;0.90;99.90;;;;;;5005278;28;20026;-82
2024/01/07 03:33:01;;;;;;;22.87;16.67;;;0.90;99.90;;;;;;5004489;28;20023;-80
2024/01/07 03:35:27;;;;;;;22.73;16.40;;;0.90;99.90;;;;;;5001949;28;20045;-81
2024/01/07 03:37:52;;;;;;;23.30;16.87;;;1.00;99.90;;;;;;5003951;28;20028;-81
2024/01/07 03:40:18;;;;;;;22.50;16.73;;;1.00;99.90;;;;;;5003798;28;20050;-82
2024/01/07 03:42:43;;;;;;;22.37;16.17;;;1.00;99.90;;;;;;5004390;28;20042;-82
2024/01/07 03:45:09;;;;;;;19.37;14.77;;;1.00;99.90;;;;;;5002977;28;20153;-80
2024/01/07 03:47:34;;;;;;;20.80;15.90;;;1.00;99.90;;;;;;5005367;28;20769;-80
2024/01/07 03:50:00;;;;;;;23.77;16.57;;;1.00;99.90;;;;;;5005669;28;20038;-82
2024/01/07 03:52:25;;;;;;;23.23;15.83;;;1.00;99.90;;;;;;5006200;28;20112;-81
2024/01/07 03:54:51;;;;;;;21.43;16.17;;;1.00;99.90;;;;;;5005622;28;20062;-81
2024/01/07 03:57:16;;;;;;;20.73;15.73;;;1.00;99.90;;;;;;4990018;28;20034;-81
2024/01/07 03:59:42;;;;;;;20.23;15.83;;;1.00;99.90;;;;;;5009129;28;20041;-81
2024/01/07 04:02:07;;;;;;;20.70;15.20;;;1.00;99.90;;;;;;5006543;28;20076;-81
2024/01/07 04:04:33;;;;;;;20.93;15.30;;;1.00;99.90;;;;;;5008211;28;20010;-80
2024/01/07 04:06:59;;;;;;;18.70;14.77;;;1.00;99.90;;;;;;5006580;28;20140;-81
2024/01/07 04:09:24;;;;;;;21.27;15.47;;;0.90;99.90;;;;;;5006711;28;20092;-81
2024/01/07 04:11:50;;;;;;;22.37;16.93;;;1.00;99.90;;;;;;5008681;28;20027;-81
2024/01/07 04:14:15;;;;;;;20.50;16.20;;;1.00;99.90;;;;;;5008692;28;20089;-80
2024/01/07 04:16:41;;;;;;;20.53;15.80;;;1.00;99.90;;;;;;5008055;28;20053;-81
2024/01/07 04:19:07;;;;;;;22.77;16.07;;;1.00;99.90;;;;;;5006168;28;20026;-82
2024/01/07 04:21:32;;;;;;;21.30;15.70;;;1.00;99.90;;;;;;5006803;28;20045;-81
2024/01/07 04:23:58;;;;;;;20.37;15.93;;;1.00;99.90;;;;;;5005921;28;20038;-80
2024/01/07 04:26:24;;;;;;;20.07;15.70;;;1.00;99.90;;;;;;4999122;28;20031;-82
2024/01/07 04:28:50;;;;;;;21.13;15.80;;;1.00;99.90;;;;;;4998612;28;20409;-81
2024/01/07 04:31:15;;;;;;;21.23;16.10;;;0.90;99.90;;;;;;5002014;28;20034;-81
2024/01/07 04:33:41;;;;;;;21.90;17.07;;;0.90;99.90;;;;;;5002878;28;20030;-81
2024/01/07 04:36:06;;;;;;;22.87;16.97;;;1.00;99.90;;;;;;5001830;28;20034;-82
2024/01/07 04:38:32;;;;;;;23.00;16.93;;;1.00;99.90;;;;;;5002819;28;20019;-81
2024/01/07 04:40:58;;;;;;;24.03;16.93;;;1.00;99.90;;;;;;5001544;28;20026;-81
2024/01/07 04:43:23;;;;;;;22.53;15.50;;;1.00;99.90;;;;;;5002317;28;20057;-81
2024/01/07 04:45:49;;;;;;;21.93;15.47;;;1.00;99.90;;;;;;5000974;28;20065;-82
2024/01/07 04:48:14;;;;;;;20.97;15.43;;;1.00;99.90;;;;;;5001000;28;20032;-82
2024/01/07 04:50:43;;;;;;;20.27;15.67;;;1.00;99.90;;;;;;4984735;28;20047;-81
2024/01/07 04:53:09;;;;;;;20.80;15.27;;;1.00;99.90;;;;;;5002606;28;20026;-81
2024/01/07 04:55:36;;;;;;;19.47;14.93;;;1.00;99.90;;;;;;5000287;28;20029;-82
2024/01/07 04:58:01;;;;;;;18.80;14.53;;;1.00;99.90;;;;;;5000384;28;20026;-81
2024/01/07 05:00:27;;;;;;;20.10;14.20;;;1.00;99.90;;;;;;5004677;28;20030;-82
2024/01/07 05:02:53;;;;;;;18.33;13.70;;;1.00;99.90;;;;;;5005839;28;20030;-81
2024/01/07 05:05:18;;;;;;;19.20;14.17;;;1.00;99.90;;;;;;5003021;28;20061;-82
2024/01/07 05:07:44;;;;;;;19.03;14.20;;;1.00;99.90;;;;;;5002122;28;20036;-81
2024/01/07 05:10:09;;;;;;;17.80;13.57;;;1.00;99.90;;;;;;5001483;28;20046;-82
2024/01/07 05:12:35;;;;;;;17.57;13.80;;;1.00;99.90;;;;;;5000452;28;20053;-82
2024/01/07 05:15:00;;;;;;;17.17;13.70;;;1.00;99.90;;;;;;5001592;28;20030;-82
2024/01/07 05:17:26;;;;;;;16.90;13.27;;;1.00;99.90;;;;;;5001030;28;20038;-81
2024/01/07 05:19:51;;;;;;;17.13;13.37;;;0.90;99.90;;;;;;5001271;28;20038;-81
2024/01/07 05:22:17;;;;;;;16.93;13.17;;;1.00;99.90;;;;;;4986100;28;20097;-81
2024/01/07 05:24:42;;;;;;;15.53;12.13;;;1.00;99.90;;;;;;5005269;28;20038;-82
2024/01/07 05:27:09;;;;;;;16.03;13.27;;;1.00;99.90;;;;;;5003456;28;20030;-81
2024/01/07 05:29:34;;;;;;;18.00;13.60;;;0.90;99.90;;;;;;5005067;28;20038;-81
2024/01/07 05:32:01;;;;;;;18.50;13.53;;;1.00;99.90;;;;;;4989005;28;20131;-82
2024/01/07 05:34:27;;;;;;;18.07;13.30;;;0.90;99.90;;;;;;5008460;28;20052;-81
2024/01/07 05:36:53;;;;;;;17.47;13.13;;;0.90;99.90;;;;;;5007529;28;20034;-82
2024/01/07 05:39:18;;;;;;;17.03;13.20;;;0.90;99.90;;;;;;5008140;28;20049;-82
2024/01/07 05:41:44;;;;;;;17.30;13.63;;;0.90;99.90;;;;;;5007813;28;20069;-81
2024/01/07 05:44:09;;;;;;;16.47;12.67;;;0.90;99.90;;;;;;5006561;28;20035;-81
2024/01/07 05:46:39;;;;;;;17.90;13.00;;;0.90;99.90;;;;;;4991414;28;20034;-82
2024/01/07 05:49:05;;;;;;;16.10;12.43;;;0.90;99.90;;;;;;4987924;28;20038;-81
2024/01/07 05:51:31;;;;;;;17.53;13.33;;;0.90;99.90;;;;;;5008366;28;20030;-81
2024/01/07 05:53:56;;;;;;;16.93;12.83;;;0.90;99.90;;;;;;4993146;28;20044;-81
2024/01/07 05:56:22;;;;;;;18.67;12.40;;;1.00;99.90;;;;;;5013421;28;20058;-81
2024/01/07 05:58:47;;;;;;;15.63;12.40;;;1.00;99.90;;;;;;4997406;28;20030;-82
2024/01/07 06:01:19;;;;;;;17.47;13.13;;;0.90;99.90;;;;;;5013005;28;20038;-82
2024/01/07 06:03:44;;;;;;;17.33;12.27;;;1.00;99.90;;;;;;4991157;28;20045;-82
2024/01/07 06:06:12;;;;;;;17.33;12.50;;;1.00;99.90;;;;;;5010141;28;20095;-81
2024/01/07 06:08:38;;;;;;;16.47;12.60;;;1.00;99.90;;;;;;5009226;28;20027;-82
2024/01/07 06:11:04;;;;;;;15.30;11.53;;;1.00;99.90;;;;;;5009045;28;20035;-82
2024/01/07 06:13:29;;;;;;;15.27;12.00;;;1.00;99.90;;;;;;5009403;28;20061;-82
2024/01/07 06:15:55;;;;;;;15.60;12.00;;;0.90;99.90;;;;;;5010806;28;20190;-82
2024/01/07 06:18:20;;;;;;;17.73;13.40;;;0.90;99.90;;;;;;5009675;28;20212;-82
2024/01/07 06:20:46;;;;;;;17.23;12.70;;;0.90;99.90;;;;;;5009712;28;20030;-81
2024/01/07 06:23:12;;;;;;;15.30;12.00;;;0.90;99.90;;;;;;5009562;28;20018;-82
2024/01/07 06:25:39;;;;;;;23.30;13.37;;;0.90;99.90;;;;;;5008406;28;20065;-81
2024/01/07 06:28:04;;;;;;;16.23;12.43;;;0.90;99.90;;;;;;5008955;28;20101;-82
2024/01/07 06:30:30;;;;;;;18.20;13.70;;;0.90;99.90;;;;;;5010146;28;20058;-82
2024/01/07 06:32:55;;;;;;;18.13;13.73;;;0.90;99.90;;;;;;5008608;28;20022;-81
2024/01/07 06:35:21;;;;;;;16.20;12.13;;;0.90;99.90;;;;;;5008846;28;20027;-81
2024/01/07 06:37:47;;;;;;;17.07;12.53;;;0.90;99.90;;;;;;5006473;28;20026;-82
2024/01/07 06:40:12;;;;;;;18.20;13.70;;;0.90;99.90;;;;;;5009121;28;20034;-82
2024/01/07 06:42:38;;;;;;;17.10;12.63;;;0.90;99.90;;;;;;5009143;28;20031;-81
2024/01/07 06:45:04;;;;;;;15.17;11.80;;;0.90;99.90;;;;;;5007834;28;20032;-82
2024/01/07 06:47:30;;;;;;;18.47;11.70;;;0.90;99.90;;;;;;5008409;28;20033;-82
2024/01/07 06:49:55;;;;;;;15.87;12.67;;;0.90;99.90;;;;;;5007672;28;20042;-82
2024/01/07 06:52:21;;;;;;;17.40;12.60;;;0.90;99.90;;;;;;4991745;28;20122;-81
2024/01/07 06:54:46;;;;;;;18.10;13.53;;;0.90;99.90;;;;;;5007895;28;20164;-82
2024/01/07 06:57:12;;;;;;;16.27;11.73;;;0.90;99.90;;;;;;5009870;28;20113;-81
2024/01/07 06:59:38;;;;;;;15.73;11.93;;;0.90;99.90;;;;;;5009497;28;20052;-82
2024/01/07 07:02:03;;;;;;;17.23;12.20;;;0.90;99.90;;;;;;5008280;28;20030;-82
2024/01/07 07:04:29;;;;;;;18.13;12.73;;;0.90;99.90;;;;;;5008865;28;20240;-82
2024/01/07 07:06:54;;;;;;;17.67;13.23;;;0.90;99.90;;;;;;5008251;28;20026;-82
2024/01/07 07:09:20;;;;;;;18.60;13.47;;;0.90;99.90;;;;;;5008660;28;20026;-82
2024/01/07 07:11:45;;;;;;;19.77;13.33;;;0.90;99.90;;;;;;5007778;28;20026;-82
2024/01/07 07:14:11;;;;;;;18.63;12.40;;;0.90;99.90;;;;;;5009006;28;20045;-82
2024/01/07 07:16:36;;;;;;;19.57;12.73;;;0.90;99.90;;;;;;5008319;28;20030;-82
2024/01/07 07:19:02;;;;;;;17.93;13.33;;;0.90;99.90;;;;;;5009185;28;20045;-81
2024/01/07 07:21:27;;;;;;;15.53;11.57;;;0.80;99.90;;;;;;5008328;28;20058;-82
2024/01/07 07:23:53;;;;;;;15.67;11.40;;;0.90;99.90;;;;;;5006138;28;20033;-81
2024/01/07 07:26:19;;;;;;;17.10;12.20;;;0.90;99.90;;;;;;5007507;28;20037;-82
2024/01/07 07:28:44;;;;;;;17.63;12.80;;;0.80;99.90;;;;;;5006587;28;20018;-82
2024/01/07 07:31:12;;;;;;;21.53;14.67;;;0.90;99.90;;;;;;5000572;28;20037;-82
2024/01/07 07:33:39;;;;;;;19.63;14.23;;;0.90;99.90;;;;;;4999897;28;20022;-83
2024/01/07 07:36:05;;;;;;;62.13;34.17;;;0.80;99.90;;;;;;5000808;28;20073;-83
2024/01/07 07:38:31;;;;;;;23.30;15.27;;;0.80;99.90;;;;;;4998605;28;21737;-81
2024/01/07 07:40:56;;;;;;;18.33;13.17;;;0.80;99.90;;;;;;4997248;28;20203;-82
2024/01/07 07:43:22;;;;;;;18.87;12.90;;;0.80;99.90;;;;;;5001322;28;20032;-82
2024/01/07 07:45:56;;;;;;;18.10;12.57;;;0.80;99.90;;;;;;5074669;27;20402;-79
2024/01/07 07:48:21;;;;;;;19.47;12.73;;;0.90;99.90;;;;;;5075359;28;20047;-81
2024/01/07 07:50:49;;;;;;;19.10;13.37;;;0.90;99.90;;;;;;5072008;28;20056;-80
2024/01/07 07:53:15;;;;;;;18.37;11.53;;;0.90;99.90;;;;;;5071887;28;20610;-82
2024/01/07 07:55:40;;;;;;;18.10;12.50;;;0.90;99.90;;;;;;5071758;28;20024;-81
2024/01/07 07:58:06;;;;;;;18.53;12.17;;;0.90;99.90;;;;;;5068339;28;20489;-82
2024/01/07 08:00:31;;;;;;;24.47;14.67;;;0.90;99.90;;;;;;5071659;28;20020;-81
2024/01/07 08:02:57;;;;;;;17.20;12.40;;;0.90;99.90;;;;;;5070206;28;20028;-82
2024/01/07 08:05:22;;;;;;;22.27;14.30;;;0.90;99.90;;;;;;5070228;28;20120;-82
2024/01/07 08:07:48;;;;;;;18.37;13.60;;;0.90;99.90;;;;;;5066592;28;20033;-83
2024/01/07 08:10:13;;;;;;;17.43;12.37;;;0.90;99.90;;;;;;5068286;28;20162;-81
2024/01/07 08:12:39;;;;;;;21.00;13.93;;;0.90;99.90;;;;;;5068530;28;20655;-82
2024/01/07 08:15:06;;;;;;;19.20;13.37;;;0.90;99.90;;;;;;5067326;28;20637;-85
2024/01/07 08:17:31;;;;;;;19.00;12.83;;;0.90;99.90;;;;;;5066533;28;20017;-82
2024/01/07 08:19:57;;;;;;;19.53;12.93;;;0.80;99.90;;;;;;5070032;28;20035;-81
2024/01/07 08:22:22;;;;;;;20.83;14.30;;;0.80;99.90;;;;;;5070644;28;20033;-81
2024/01/07 08:24:48;;;;;;;18.43;13.20;;;0.80;99.90;;;;;;5073672;28;20036;-79
2024/01/07 08:27:13;;;;;;;17.90;12.73;;;0.80;99.90;;;;;;5071099;28;20124;-82
2024/01/07 08:29:39;;;;;;;18.90;12.97;;;0.80;99.90;;;;;;5066823;28;20070;-83
2024/01/07 08:32:05;;;;;;;20.40;13.67;;;0.80;99.90;;;;;;5069960;28;20033;-83
2024/01/07 08:34:30;;;;;;;22.83;14.43;;;0.80;99.90;;;;;;5067661;28;20033;-82
2024/01/07 08:36:56;;;;;;;18.50;13.30;;;0.80;99.90;;;;;;5068970;28;20297;-81
2024/01/07 08:39:21;;;;;;;21.93;14.93;;;0.80;99.90;;;;;;5069325;28;20033;-82
2024/01/07 08:41:47;;;;;;;20.60;13.23;;;0.80;99.90;;;;;;5068058;28;20021;-82
2024/01/07 08:44:12;;;;;;;21.07;13.03;;;0.80;99.90;;;;;;5067839;28;20060;-82
2024/01/07 08:46:38;;;;;;;21.23;13.27;;;0.80;99.90;;;;;;5069142;28;20035;-82
2024/01/07 08:49:04;;;;;;;19.17;13.57;;;0.80;99.90;;;;;;5068633;28;20041;-82
2024/01/07 08:51:29;;;;;;;20.27;13.70;;;0.80;99.90;;;;;;5070233;28;20028;-82
2024/01/07 08:53:57;;;;;;;20.90;13.47;;;0.80;99.90;;;;;;5069674;28;20040;-84
2024/01/07 08:56:22;;;;;;;20.90;15.43;;;0.90;99.90;;;;;;5059375;28;20165;-82
2024/01/07 08:58:48;;;;;;;23.50;13.73;;;0.80;99.90;;;;;;5053655;28;20391;-83
2024/01/07 09:01:14;;;;;;;24.30;15.77;;;0.80;99.90;;;;;;5048107;28;20033;-83
2024/01/07 09:03:41;;;;;;;24.80;16.83;;;0.90;99.90;;;;;;5047228;28;20102;-83
2024/01/07 09:06:07;;;;;;;24.80;15.63;;;0.90;99.90;;;;;;5048562;28;20091;-83
2024/01/07 09:08:34;;;;;;;21.93;14.70;;;0.90;99.90;;;;;;5043461;28;20017;-85
2024/01/07 09:11:02;;;;;;;22.63;14.93;;;0.90;99.90;;;;;;5049156;28;20033;-80
2024/01/07 09:13:27;;;;;;;23.17;14.77;;;0.90;99.90;;;;;;5046710;28;20025;-82
2024/01/07 09:15:53;;;;;;;25.07;15.17;;;1.00;99.90;;;;;;5048512;28;20020;-81
2024/01/07 09:18:18;;;;;;;22.30;14.93;;;0.90;99.90;;;;;;5050401;28;20114;-82
2024/01/07 09:20:44;;;;;;;22.87;14.60;;;0.90;99.90;;;;;;5048234;28;20083;-82
2024/01/07 09:23:10;;;;;;;25.30;15.97;;;0.90;99.90;;;;;;5049556;28;20025;-81
2024/01/07 09:25:35;;;;;;;22.43;14.47;;;0.90;99.90;;;;;;5051725;28;20036;-82
2024/01/07 09:28:01;;;;;;;23.83;16.17;;;1.00;99.90;;;;;;5048406;28;20113;-82
2024/01/07 09:30:26;;;;;;;24.83;15.40;;;0.90;99.90;;;;;;5049128;28;20112;-82
2024/01/07 09:32:52;;;;;;;22.13;15.20;;;0.90;99.90;;;;;;5048961;28;20055;-81
2024/01/07 09:35:17;;;;;;;23.57;15.90;;;0.90;99.90;;;;;;5047735;28;20029;-78
2024/01/07 09:37:43;;;;;;;21.10;13.87;;;0.90;99.90;;;;;;5045425;28;20071;-82
2024/01/07 09:40:09;;;;;;;24.63;15.37;;;0.90;99.90;;;;;;5045413;28;20044;-82
2024/01/07 09:42:35;;;;;;;24.33;14.87;;;0.90;99.90;;;;;;5050554;28;20035;-82
2024/01/07 09:45:04;;;;;;;23.47;15.33;;;0.90;99.90;;;;;;5052668;28;20033;-82
2024/01/07 09:47:30;;;;;;;24.97;15.70;;;0.90;99.90;;;;;;5061065;28;20033;-82
2024/01/07 09:49:55;;;;;;;22.73;14.67;;;0.90;99.90;;;;;;5060535;28;20039;-82
2024/01/07 09:52:21;;;;;;;21.07;13.20;;;0.90;99.90;;;;;;5058732;28;20071;-83
2024/01/07 09:54:57;;;;;;;21.83;13.60;;;1.00;99.90;;;;;;5058696;28;20040;-82
2024/01/07 09:57:23;;;;;;;22.47;14.27;;;1.00;99.90;;;;;;5059741;28;20053;-82
2024/01/07 09:59:49;;;;;;;22.33;15.00;;;1.00;99.90;;;;;;5059880;28;20024;-82
2024/01/07 10:02:15;;;;;;;21.47;14.23;;;1.00;99.90;;;;;;5056984;28;20056;-82
2024/01/07 10:04:41;;;;;;;20.13;13.43;;;1.00;99.90;;;;;;5060100;28;20028;-81
2024/01/07 10:07:07;;;;;;;20.63;14.03;;;1.00;99.90;;;;;;5057860;28;20025;-81
2024/01/07 10:09:33;;;;;;;22.37;13.80;;;1.10;99.90;;;;;;5060165;28;20017;-82
2024/01/07 10:11:59;;;;;;;21.43;13.53;;;1.00;99.90;;;;;;5059188;28;20033;-81
2024/01/07 10:14:25;;;;;;;20.97;14.97;;;1.00;99.90;;;;;;5060300;28;20033;-81
2024/01/07 10:16:52;;;;;;;20.87;14.13;;;1.00;99.90;;;;;;5061183;28;20539;-82
2024/01/07 10:19:22;;;;;;;21.87;13.07;;;1.00;99.90;;;;;;5059540;28;20048;-81
2024/01/07 10:22:04;;;;;;;22.53;14.03;;;1.00;99.90;;;;;;5059981;28;20078;-81
2024/01/07 10:24:40;;;;;;;21.47;14.43;;;1.00;99.90;;;;;;5059668;28;20044;-81
2024/01/07 10:27:06;;;;;;;20.47;13.70;;;1.00;99.90;;;;;;5058891;28;20055;-82
2024/01/07 10:29:32;;;;;;;23.90;14.47;;;1.00;99.90;;;;;;5057694;28;20021;-82
2024/01/07 10:31:59;;;;;;;20.43;13.90;;;1.00;99.90;;;;;;5056782;28;20029;-81
2024/01/07 10:34:26;;;;;;;21.37;14.13;;;1.00;99.90;;;;;;5057389;28;20029;-81
2024/01/07 10:36:56;;;;;;;20.20;12.87;;;1.00;99.90;;;;;;5057015;28;20059;-79
2024/01/07 10:39:23;;;;;;;22.93;14.53;;;1.10;99.90;;;;;;5056585;28;20037;-78
2024/01/07 10:41:50;;;;;;;21.30;13.40;;;1.10;99.90;;;;;;5057577;28;20039;-79
2024/01/07 10:44:16;;;;;;;22.43;14.03;;;1.10;99.90;;;;;;5058676;28;20032;-78
2024/01/07 10:46:44;;;;;;;18.63;12.70;;;1.10;99.90;;;;;;5052399;28;20021;-80
2024/01/07 10:49:23;;;;;;;18.67;12.20;;;1.20;99.90;;;;;;5050836;28;20163;-84
2024/01/07 10:52:04;;;;;;;19.83;13.30;;;1.20;99.90;;;;;;5045062;28;20024;-85
2024/01/07 10:54:30;;;;;;;19.50;13.20;;;1.20;99.90;;;;;;5045948;28;20183;-85
2024/01/07 10:57:01;;;;;;;19.20;12.60;;;1.20;99.90;;;;;;5043912;28;20029;-85
2024/01/07 10:59:29;;;;;;;18.50;12.80;;;1.30;99.90;;;;;;5044676;28;20112;-83
2024/01/07 11:01:55;;;;;;;18.10;12.07;;;1.30;99.90;;;;;;5046973;28;20200;-84
2024/01/07 11:04:43;;;;;;;21.47;13.10;;;1.30;99.90;;;;;;5045296;28;20874;-84
2024/01/07 11:07:32;;;;;;;22.10;13.20;;;1.30;99.90;;;;;;5044720;28;20056;-85
2024/01/07 11:10:13;;;;;;;19.40;12.53;;;1.20;99.90;;;;;;5048996;28;20056;-84
2024/01/07 11:12:39;;;;;;;19.50;12.70;;;1.20;99.90;;;;;;5038462;28;20029;-83
2024/01/07 11:15:04;;;;;;;19.33;12.33;;;1.20;99.90;;;;;;5043206;28;20138;-85
2024/01/07 11:17:36;;;;;;;21.33;13.50;;;1.20;99.90;;;;;;5044299;28;20037;-85
2024/01/07 11:20:05;;;;;;;20.07;13.17;;;1.10;99.90;;;;;;5043841;28;20025;-84
2024/01/07 11:22:32;;;;;;;20.87;12.93;;;1.10;99.90;;;;;;5045864;28;20036;-83
2024/01/07 11:24:59;;;;;;;23.23;14.90;;;1.10;99.90;;;;;;5043705;28;20036;-84
2024/01/07 11:27:28;;;;;;;22.07;14.77;;;1.10;99.90;;;;;;5043502;28;20024;-85
2024/01/07 11:30:09;;;;;;;21.27;13.57;;;1.10;99.90;;;;;;5042242;28;20032;-84
2024/01/07 11:32:35;;;;;;;18.30;12.63;;;1.00;99.90;;;;;;5040118;28;20134;-85
2024/01/07 11:35:02;;;;;;;16.93;11.70;;;1.10;99.90;;;;;;5038834;28;20044;-86
2024/01/07 11:37:28;;;;;;;19.60;12.83;;;1.00;99.90;;;;;;5038634;28;20032;-85
2024/01/07 11:39:57;;;;;;;19.77;12.50;;;1.00;99.90;;;;;;5038059;28;20407;-85
2024/01/07 11:42:23;;;;;;;17.40;12.13;;;1.00;99.90;;;;;;5043854;28;20040;-86
2024/01/07 11:44:53;;;;;;;18.33;11.87;;;1.00;99.90;;;;;;5039638;28;20032;-89
2024/01/07 11:47:20;;;;;;;18.77;11.20;;;1.00;99.90;;;;;;5037896;28;20048;-86
2024/01/07 11:49:47;;;;;;;15.50;11.67;;;1.00;99.90;;;;;;5033058;28;20868;-85
2024/01/07 11:52:13;;;;;;;17.13;11.00;;;1.00;99.90;;;;;;5025210;28;20048;-85
2024/01/07 11:54:39;;;;;;;14.77;10.60;;;0.90;99.90;;;;;;5028962;28;20033;-84
2024/01/07 11:57:05;;;;;;;13.07;8.60;;;0.90;99.90;;;;;;5028403;28;20061;-85
2024/01/07 11:59:31;;;;;;;12.07;7.80;;;0.90;99.90;;;;;;5038218;28;20598;-85
2024/01/07 12:01:58;;;;;;;14.17;9.23;;;1.00;99.90;;;;;;5044770;28;20029;-83
2024/01/07 12:04:24;;;;;;;12.73;8.73;;;0.90;99.90;;;;;;5043310;28;20035;-83
2024/01/07 12:06:49;;;;;;;13.33;9.20;;;0.90;99.90;;;;;;5042431;28;20384;-82
2024/01/07 12:09:15;;;;;;;13.77;9.40;;;0.80;99.90;;;;;;5045732;28;20048;-79
2024/01/07 12:11:41;;;;;;;15.47;10.80;;;0.80;99.90;;;;;;5051574;28;20470;-80
2024/01/07 12:14:09;;;;;;;16.60;10.13;;;0.70;99.90;;;;;;5050113;28;20096;-80
2024/01/07 12:16:35;;;;;;;15.77;10.10;;;0.70;99.90;;;;;;5052862;28;20040;-83
2024/01/07 12:19:01;;;;;;;15.97;10.13;;;0.70;99.90;;;;;;5054482;28;20033;-81
2024/01/07 12:21:28;;;;;;;15.23;11.67;;;0.60;99.90;;;;;;5053561;28;20037;-79
2024/01/07 12:23:54;;;;;;;16.77;11.30;;;0.60;99.90;;;;;;5053881;28;20044;-80
2024/01/07 12:26:21;;;;;;;19.27;11.40;;;0.70;99.90;;;;;;5052361;28;20029;-82
2024/01/07 12:28:54;;;;;;;13.53;9.97;;;0.70;99.90;;;;;;5053858;28;20037;-80
2024/01/07 12:31:19;;;;;;;18.60;11.90;;;0.60;99.90;;;;;;5057988;28;20036;-82
2024/01/07 12:33:46;;;;;;;15.80;11.80;;;0.60;99.90;;;;;;5055437;28;20029;-80